sensor_id;sensor_type;location;lat;lon;timestamp;temperature;humidity
30949;HTU21D;17637;51.984;21.208;2022-08-14T00:03:18;20.15;3.91
30949;HTU21D;17637;51.984;21.208;2022-08-14T00:08:32;20.17;3.86
30949;HTU21D;17637;51.984;21.208;2022-08-14T00:13:46;20.11;5.29
30949;HTU21D;17637;51.984;21.208;2022-08-14T00:18:54;20.02;5.74
30949;HTU21D;17637;51.984;21.208;2022-08-14T00:24:19;20.10;5.55
30949;HTU21D;17637;51.984;21.208;2022-08-14T00:29:32;20.06;5.54
30949;HTU21D;17637;51.984;21.208;2022-08-14T00:34:44;20.14;5.42
30949;HTU21D;17637;51.984;21.208;2022-08-14T00:39:50;19.95;5.67
30949;HTU21D;17637;51.984;21.208;2022-08-14T00:44:55;19.98;5.86
30949;HTU21D;17637;51.984;21.208;2022-08-14T00:49:59;19.95;5.67
30949;HTU21D;17637;51.984;21.208;2022-08-14T00:55:07;19.95;5.67
30949;HTU21D;17637;51.984;21.208;2022-08-14T01:00:15;19.95;5.54
30949;HTU21D;17637;51.984;21.208;2022-08-14T01:05:38;20.03;4.98
30949;HTU21D;17637;51.984;21.208;2022-08-14T01:10:55;20.05;5.05
30949;HTU21D;17637;51.984;21.208;2022-08-14T01:16:02;20.06;4.94
30949;HTU21D;17637;51.984;21.208;2022-08-14T01:21:09;20.05;5.15
30949;HTU21D;17637;51.984;21.208;2022-08-14T01:26:23;20.04;5.15
30949;HTU21D;17637;51.984;21.208;2022-08-14T01:31:40;20.04;6.57
30949;HTU21D;17637;51.984;21.208;2022-08-14T01:36:52;20.06;5.21
30949;HTU21D;17637;51.984;21.208;2022-08-14T01:41:58;19.98;5.11
30949;HTU21D;17637;51.984;21.208;2022-08-14T01:47:07;20.05;5.01
30949;HTU21D;17637;51.984;21.208;2022-08-14T01:52:23;19.90;5.68
30949;HTU21D;17637;51.984;21.208;2022-08-14T01:57:49;19.80;6.41
30949;HTU21D;17637;51.984;21.208;2022-08-14T02:03:12;19.80;6.45
30949;HTU21D;17637;51.984;21.208;2022-08-14T02:08:17;19.75;6.30
30949;HTU21D;17637;51.984;21.208;2022-08-14T02:13:37;19.80;6.41
30949;HTU21D;17637;51.984;21.208;2022-08-14T02:18:44;19.83;6.51
30949;HTU21D;17637;51.984;21.208;2022-08-14T02:23:48;19.86;6.13
30949;HTU21D;17637;51.984;21.208;2022-08-14T02:28:58;19.77;6.54
30949;HTU21D;17637;51.984;21.208;2022-08-14T02:34:07;19.82;6.57
30949;HTU21D;17637;51.984;21.208;2022-08-14T02:39:24;19.82;6.60
30949;HTU21D;17637;51.984;21.208;2022-08-14T02:44:30;19.89;6.32
30949;HTU21D;17637;51.984;21.208;2022-08-14T02:49:41;19.99;6.02
30949;HTU21D;17637;51.984;21.208;2022-08-14T02:54:44;19.96;6.05
30949;HTU21D;17637;51.984;21.208;2022-08-14T02:59:50;20.00;5.86
30949;HTU21D;17637;51.984;21.208;2022-08-14T03:04:53;19.97;5.89
30949;HTU21D;17637;51.984;21.208;2022-08-14T03:09:58;19.94;6.05
30949;HTU21D;17637;51.984;21.208;2022-08-14T03:15:23;19.95;6.34
30949;HTU21D;17637;51.984;21.208;2022-08-14T03:20:27;19.87;6.53
30949;HTU21D;17637;51.984;21.208;2022-08-14T03:25:32;19.86;6.68
30949;HTU21D;17637;51.984;21.208;2022-08-14T03:30:41;19.90;6.66
30949;HTU21D;17637;51.984;21.208;2022-08-14T03:35:45;19.83;7.26
30949;HTU21D;17637;51.984;21.208;2022-08-14T03:41:08;19.80;7.24
30949;HTU21D;17637;51.984;21.208;2022-08-14T03:46:17;19.88;6.89
30949;HTU21D;17637;51.984;21.208;2022-08-14T03:51:40;19.90;7.01
30949;HTU21D;17637;51.984;21.208;2022-08-14T03:56:44;19.96;6.70
30949;HTU21D;17637;51.984;21.208;2022-08-14T04:01:53;20.00;6.50
30949;HTU21D;17637;51.984;21.208;2022-08-14T04:07:03;19.98;6.57
30949;HTU21D;17637;51.984;21.208;2022-08-14T04:12:06;20.02;6.47
30949;HTU21D;17637;51.984;21.208;2022-08-14T04:17:17;20.02;6.64
30949;HTU21D;17637;51.984;21.208;2022-08-14T04:22:21;19.99;6.80
30949;HTU21D;17637;51.984;21.208;2022-08-14T04:27:25;20.02;6.94
30949;HTU21D;17637;51.984;21.208;2022-08-14T04:32:31;20.05;6.88
30949;HTU21D;17637;51.984;21.208;2022-08-14T04:37:55;20.06;7.05
30949;HTU21D;17637;51.984;21.208;2022-08-14T04:43:37;20.15;6.90
30949;HTU21D;17637;51.984;21.208;2022-08-14T04:48:43;20.15;7.37
30949;HTU21D;17637;51.984;21.208;2022-08-14T04:53:56;20.26;6.82
30949;HTU21D;17637;51.984;21.208;2022-08-14T04:59:04;20.19;7.15
30949;HTU21D;17637;51.984;21.208;2022-08-14T05:04:13;20.28;6.57
30949;HTU21D;17637;51.984;21.208;2022-08-14T05:09:22;20.29;7.04
30949;HTU21D;17637;51.984;21.208;2022-08-14T05:14:30;20.42;6.36
30949;HTU21D;17637;51.984;21.208;2022-08-14T05:19:50;20.40;6.41
30949;HTU21D;17637;51.984;21.208;2022-08-14T05:25:13;20.41;6.39
30949;HTU21D;17637;51.984;21.208;2022-08-14T05:30:16;20.55;6.09
30949;HTU21D;17637;51.984;21.208;2022-08-14T05:35:23;20.65;5.97
30949;HTU21D;17637;51.984;21.208;2022-08-14T05:40:27;20.78;5.59
30949;HTU21D;17637;51.984;21.208;2022-08-14T05:45:31;20.87;5.01
30949;HTU21D;17637;51.984;21.208;2022-08-14T05:50:39;20.98;4.49
30949;HTU21D;17637;51.984;21.208;2022-08-14T05:55:43;21.04;4.41
30949;HTU21D;17637;51.984;21.208;2022-08-14T06:00:46;21.08;4.38
30949;HTU21D;17637;51.984;21.208;2022-08-14T06:05:55;21.36;3.29
30949;HTU21D;17637;51.984;21.208;2022-08-14T06:11:00;21.45;2.68
30949;HTU21D;17637;51.984;21.208;2022-08-14T06:16:07;21.42;2.71
30949;HTU21D;17637;51.984;21.208;2022-08-14T06:21:13;21.61;2.83
30949;HTU21D;17637;51.984;21.208;2022-08-14T06:26:19;21.46;2.78
30949;HTU21D;17637;51.984;21.208;2022-08-14T06:31:24;21.65;2.35
30949;HTU21D;17637;51.984;21.208;2022-08-14T06:36:28;21.57;2.49
30949;HTU21D;17637;51.984;21.208;2022-08-14T06:41:31;21.84;2.13
30949;HTU21D;17637;51.984;21.208;2022-08-14T06:46:54;21.79;1.87
30949;HTU21D;17637;51.984;21.208;2022-08-14T06:51:59;21.90;1.77
30949;HTU21D;17637;51.984;21.208;2022-08-14T06:57:03;21.72;1.58
30949;HTU21D;17637;51.984;21.208;2022-08-14T07:02:08;21.81;1.58
30949;HTU21D;17637;51.984;21.208;2022-08-14T07:07:36;21.91;1.49
30949;HTU21D;17637;51.984;21.208;2022-08-14T07:12:40;22.09;1.61
30949;HTU21D;17637;51.984;21.208;2022-08-14T07:18:04;22.09;1.55
30949;HTU21D;17637;51.984;21.208;2022-08-14T07:23:12;22.01;0.91
30949;HTU21D;17637;51.984;21.208;2022-08-14T07:28:25;21.90;1.47
30949;HTU21D;17637;51.984;21.208;2022-08-14T07:33:33;22.04;1.90
30949;HTU21D;17637;51.984;21.208;2022-08-14T07:38:39;21.97;1.62
30949;HTU21D;17637;51.984;21.208;2022-08-14T07:43:43;22.07;1.48
30949;HTU21D;17637;51.984;21.208;2022-08-14T07:48:58;22.08;1.45
30949;HTU21D;17637;51.984;21.208;2022-08-14T07:54:04;22.11;1.52
30949;HTU21D;17637;51.984;21.208;2022-08-14T07:59:12;22.28;1.31
30949;HTU21D;17637;51.984;21.208;2022-08-14T08:04:21;22.35;0.92
30949;HTU21D;17637;51.984;21.208;2022-08-14T08:09:28;22.60;0.38
30949;HTU21D;17637;51.984;21.208;2022-08-14T08:14:34;22.46;-0.01
30949;HTU21D;17637;51.984;21.208;2022-08-14T08:19:58;22.23;0.18
30949;HTU21D;17637;51.984;21.208;2022-08-14T08:25:03;22.49;0.28
30949;HTU21D;17637;51.984;21.208;2022-08-14T08:30:15;22.60;-0.48
30949;HTU21D;17637;51.984;21.208;2022-08-14T08:35:20;22.77;-0.21
30949;HTU21D;17637;51.984;21.208;2022-08-14T08:40:28;22.61;-0.55
30949;HTU21D;17637;51.984;21.208;2022-08-14T08:45:33;22.92;-0.93
30949;HTU21D;17637;51.984;21.208;2022-08-14T08:50:38;22.82;-1.27
30949;HTU21D;17637;51.984;21.208;2022-08-14T08:55:43;23.34;-1.75
30949;HTU21D;17637;51.984;21.208;2022-08-14T09:00:48;23.37;-1.93
30949;HTU21D;17637;51.984;21.208;2022-08-14T09:05:57;23.60;-1.93
30949;HTU21D;17637;51.984;21.208;2022-08-14T09:11:06;23.52;-2.28
30949;HTU21D;17637;51.984;21.208;2022-08-14T09:16:23;23.68;-2.74
30949;HTU21D;17637;51.984;21.208;2022-08-14T09:21:29;23.49;-2.62
30949;HTU21D;17637;51.984;21.208;2022-08-14T09:26:35;23.95;-3.03
30949;HTU21D;17637;51.984;21.208;2022-08-14T09:31:42;24.24;-3.21
30949;HTU21D;17637;51.984;21.208;2022-08-14T09:37:10;24.41;-4.12
30949;HTU21D;17637;51.984;21.208;2022-08-14T09:42:41;24.62;-2.86
30949;HTU21D;17637;51.984;21.208;2022-08-14T09:47:54;24.20;-4.27
30949;HTU21D;17637;51.984;21.208;2022-08-14T09:52:59;24.50;-3.62
30949;HTU21D;17637;51.984;21.208;2022-08-14T09:58:13;24.49;-4.35
30949;HTU21D;17637;51.984;21.208;2022-08-14T10:03:26;24.65;-4.28
30949;HTU21D;17637;51.984;21.208;2022-08-14T10:08:43;24.80;-4.80
30949;HTU21D;17637;51.984;21.208;2022-08-14T10:13:57;25.06;-4.84
30949;HTU21D;17637;51.984;21.208;2022-08-14T10:19:02;25.29;-5.42
30949;HTU21D;17637;51.984;21.208;2022-08-14T10:24:09;25.71;-5.13
30949;HTU21D;17637;51.984;21.208;2022-08-14T10:29:30;25.91;-5.72
30949;HTU21D;17637;51.984;21.208;2022-08-14T10:34:35;25.79;-5.60
30949;HTU21D;17637;51.984;21.208;2022-08-14T10:39:43;26.21;118.77
30949;HTU21D;17637;51.984;21.208;2022-08-14T10:45:16;26.16;118.14
30949;HTU21D;17637;51.984;21.208;2022-08-14T10:50:30;25.58;-5.98
30949;HTU21D;17637;51.984;21.208;2022-08-14T10:55:36;25.52;118.45
30949;HTU21D;17637;51.984;21.208;2022-08-14T11:00:56;25.62;118.62
30949;HTU21D;17637;51.984;21.208;2022-08-14T11:06:10;26.18;118.06
30949;HTU21D;17637;51.984;21.208;2022-08-14T11:11:17;25.79;118.75
30949;HTU21D;17637;51.984;21.208;2022-08-14T11:16:23;25.37;118.42
30949;HTU21D;17637;51.984;21.208;2022-08-14T11:21:31;25.06;118.90
30949;HTU21D;17637;51.984;21.208;2022-08-14T11:26:35;25.24;118.40
30949;HTU21D;17637;51.984;21.208;2022-08-14T11:31:41;25.63;118.21
30949;HTU21D;17637;51.984;21.208;2022-08-14T11:36:44;25.94;118.79
30949;HTU21D;17637;51.984;21.208;2022-08-14T11:42:19;26.17;118.08
30949;HTU21D;17637;51.984;21.208;2022-08-14T11:47:43;26.48;117.50
30949;HTU21D;17637;51.984;21.208;2022-08-14T11:53:17;26.66;117.87
30949;HTU21D;17637;51.984;21.208;2022-08-14T11:58:25;26.13;117.98
30949;HTU21D;17637;51.984;21.208;2022-08-14T12:03:39;25.68;118.59
30949;HTU21D;17637;51.984;21.208;2022-08-14T12:08:55;26.09;118.32
30949;HTU21D;17637;51.984;21.208;2022-08-14T12:14:06;26.20;118.72
30949;HTU21D;17637;51.984;21.208;2022-08-14T12:19:48;26.25;118.05
30949;HTU21D;17637;51.984;21.208;2022-08-14T12:24:55;26.43;118.21
30949;HTU21D;17637;51.984;21.208;2022-08-14T12:29:59;26.46;118.15
30949;HTU21D;17637;51.984;21.208;2022-08-14T12:35:05;26.55;117.71
30949;HTU21D;17637;51.984;21.208;2022-08-14T12:40:13;26.65;117.37
30949;HTU21D;17637;51.984;21.208;2022-08-14T12:45:29;26.82;117.63
30949;HTU21D;17637;51.984;21.208;2022-08-14T12:50:38;26.76;117.04
30949;HTU21D;17637;51.984;21.208;2022-08-14T12:55:44;27.11;116.74
30949;HTU21D;17637;51.984;21.208;2022-08-14T13:01:08;27.29;116.88
30949;HTU21D;17637;51.984;21.208;2022-08-14T13:06:25;27.32;116.44
30949;HTU21D;17637;51.984;21.208;2022-08-14T13:11:33;27.01;116.17
30949;HTU21D;17637;51.984;21.208;2022-08-14T13:16:42;26.91;116.57
30949;HTU21D;17637;51.984;21.208;2022-08-14T13:21:53;27.08;117.50
30949;HTU21D;17637;51.984;21.208;2022-08-14T13:27:11;27.10;116.60
30949;HTU21D;17637;51.984;21.208;2022-08-14T13:32:15;27.40;115.77
30949;HTU21D;17637;51.984;21.208;2022-08-14T13:37:21;27.26;116.02
30949;HTU21D;17637;51.984;21.208;2022-08-14T13:42:26;27.15;115.87
30949;HTU21D;17637;51.984;21.208;2022-08-14T13:47:33;27.16;116.60
30949;HTU21D;17637;51.984;21.208;2022-08-14T13:52:42;26.87;116.51
30949;HTU21D;17637;51.984;21.208;2022-08-14T13:58:01;26.75;116.12
30949;HTU21D;17637;51.984;21.208;2022-08-14T14:03:07;26.96;116.57
30949;HTU21D;17637;51.984;21.208;2022-08-14T14:08:12;27.25;116.45
30949;HTU21D;17637;51.984;21.208;2022-08-14T14:13:37;27.32;115.82
30949;HTU21D;17637;51.984;21.208;2022-08-14T14:18:48;27.56;115.75
30949;HTU21D;17637;51.984;21.208;2022-08-14T14:23:55;27.43;115.73
30949;HTU21D;17637;51.984;21.208;2022-08-14T14:29:00;27.61;115.75
30949;HTU21D;17637;51.984;21.208;2022-08-14T14:34:04;27.53;115.89
30949;HTU21D;17637;51.984;21.208;2022-08-14T14:39:31;27.40;115.67
30949;HTU21D;17637;51.984;21.208;2022-08-14T14:44:39;27.30;115.82
30949;HTU21D;17637;51.984;21.208;2022-08-14T14:49:43;27.45;115.09
30949;HTU21D;17637;51.984;21.208;2022-08-14T14:54:58;27.60;114.87
30949;HTU21D;17637;51.984;21.208;2022-08-14T15:00:03;27.81;115.49
30949;HTU21D;17637;51.984;21.208;2022-08-14T15:05:07;27.78;115.41
30949;HTU21D;17637;51.984;21.208;2022-08-14T15:10:14;27.73;115.33
30949;HTU21D;17637;51.984;21.208;2022-08-14T15:15:33;27.69;115.03
30949;HTU21D;17637;51.984;21.208;2022-08-14T15:20:39;27.66;115.35
30949;HTU21D;17637;51.984;21.208;2022-08-14T15:25:45;27.67;115.17
30949;HTU21D;17637;51.984;21.208;2022-08-14T15:30:54;27.50;115.03
30949;HTU21D;17637;51.984;21.208;2022-08-14T15:36:00;27.41;115.01
30949;HTU21D;17637;51.984;21.208;2022-08-14T15:41:06;27.49;115.08
30949;HTU21D;17637;51.984;21.208;2022-08-14T15:46:10;27.56;115.15
30949;HTU21D;17637;51.984;21.208;2022-08-14T15:51:33;27.45;115.52
30949;HTU21D;17637;51.984;21.208;2022-08-14T15:56:45;27.40;114.96
30949;HTU21D;17637;51.984;21.208;2022-08-14T16:01:49;27.39;115.54
30949;HTU21D;17637;51.984;21.208;2022-08-14T16:06:56;27.34;115.55
30949;HTU21D;17637;51.984;21.208;2022-08-14T16:12:00;27.24;115.33
30949;HTU21D;17637;51.984;21.208;2022-08-14T16:17:04;27.37;115.51
30949;HTU21D;17637;51.984;21.208;2022-08-14T16:22:11;27.39;115.22
30949;HTU21D;17637;51.984;21.208;2022-08-14T16:27:37;27.40;115.26
30949;HTU21D;17637;51.984;21.208;2022-08-14T16:33:00;27.45;115.78
30949;HTU21D;17637;51.984;21.208;2022-08-14T16:38:07;27.45;115.50
30949;HTU21D;17637;51.984;21.208;2022-08-14T16:43:33;27.35;115.43
30949;HTU21D;17637;51.984;21.208;2022-08-14T16:48:37;27.14;115.44
30949;HTU21D;17637;51.984;21.208;2022-08-14T16:54:01;27.01;115.06
30949;HTU21D;17637;51.984;21.208;2022-08-14T16:59:23;26.93;116.15
30949;HTU21D;17637;51.984;21.208;2022-08-14T17:04:47;26.83;115.72
30949;HTU21D;17637;51.984;21.208;2022-08-14T17:09:50;26.84;116.13
30949;HTU21D;17637;51.984;21.208;2022-08-14T17:14:58;26.77;115.89
30949;HTU21D;17637;51.984;21.208;2022-08-14T17:20:13;26.67;115.96
30949;HTU21D;17637;51.984;21.208;2022-08-14T17:25:36;26.57;116.36
30949;HTU21D;17637;51.984;21.208;2022-08-14T17:30:49;26.48;116.50
30949;HTU21D;17637;51.984;21.208;2022-08-14T17:36:08;26.28;116.91
30949;HTU21D;17637;51.984;21.208;2022-08-14T17:41:18;26.17;116.75
30949;HTU21D;17637;51.984;21.208;2022-08-14T17:46:38;26.04;116.90
30949;HTU21D;17637;51.984;21.208;2022-08-14T17:52:04;25.89;117.39
30949;HTU21D;17637;51.984;21.208;2022-08-14T17:57:20;25.67;117.73
30949;HTU21D;17637;51.984;21.208;2022-08-14T18:02:34;25.47;117.89
30949;HTU21D;17637;51.984;21.208;2022-08-14T18:07:39;25.35;118.17
30949;HTU21D;17637;51.984;21.208;2022-08-14T18:13:02;25.12;118.18
30949;HTU21D;17637;51.984;21.208;2022-08-14T18:18:10;24.99;118.45
30949;HTU21D;17637;51.984;21.208;2022-08-14T18:23:17;24.92;118.41
30949;HTU21D;17637;51.984;21.208;2022-08-14T18:28:25;24.87;118.08
30949;HTU21D;17637;51.984;21.208;2022-08-14T18:33:54;24.75;118.08
30949;HTU21D;17637;51.984;21.208;2022-08-14T18:39:19;24.57;117.59
30949;HTU21D;17637;51.984;21.208;2022-08-14T18:50:22;24.41;117.63
30949;HTU21D;17637;51.984;21.208;2022-08-14T18:55:46;24.36;117.66
30949;HTU21D;17637;51.984;21.208;2022-08-14T19:00:57;24.30;117.84
30949;HTU21D;17637;51.984;21.208;2022-08-14T19:06:04;24.18;118.28
30949;HTU21D;17637;51.984;21.208;2022-08-14T19:11:43;24.06;117.61
30949;HTU21D;17637;51.984;21.208;2022-08-14T19:16:51;23.97;117.17
30949;HTU21D;17637;51.984;21.208;2022-08-14T19:21:57;23.91;117.69
30949;HTU21D;17637;51.984;21.208;2022-08-14T19:27:15;23.76;117.81
30949;HTU21D;17637;51.984;21.208;2022-08-14T19:32:36;23.72;118.06
30949;HTU21D;17637;51.984;21.208;2022-08-14T19:37:45;23.68;118.24
30949;HTU21D;17637;51.984;21.208;2022-08-14T19:42:53;23.57;118.44
30949;HTU21D;17637;51.984;21.208;2022-08-14T19:48:01;23.47;118.45
30949;HTU21D;17637;51.984;21.208;2022-08-14T19:53:07;23.44;118.11
30949;HTU21D;17637;51.984;21.208;2022-08-14T19:58:17;23.42;118.37
30949;HTU21D;17637;51.984;21.208;2022-08-14T20:03:39;23.35;118.59
30949;HTU21D;17637;51.984;21.208;2022-08-14T20:09:04;23.18;118.64
30949;HTU21D;17637;51.984;21.208;2022-08-14T20:14:28;23.06;118.98
30949;HTU21D;17637;51.984;21.208;2022-08-14T20:19:33;22.98;-6.00
30949;HTU21D;17637;51.984;21.208;2022-08-14T20:24:45;22.87;-5.95
30949;HTU21D;17637;51.984;21.208;2022-08-14T20:30:09;22.85;-5.62
30949;HTU21D;17637;51.984;21.208;2022-08-14T20:35:33;22.68;-5.38
30949;HTU21D;17637;51.984;21.208;2022-08-14T20:40:42;22.57;-5.45
30949;HTU21D;17637;51.984;21.208;2022-08-14T20:45:52;22.37;-5.03
30949;HTU21D;17637;51.984;21.208;2022-08-14T20:50:56;22.22;-4.99
30949;HTU21D;17637;51.984;21.208;2022-08-14T20:56:18;22.14;-4.83
30949;HTU21D;17637;51.984;21.208;2022-08-14T21:01:34;22.16;-4.79
30949;HTU21D;17637;51.984;21.208;2022-08-14T21:06:38;22.24;-5.01
30949;HTU21D;17637;51.984;21.208;2022-08-14T21:12:03;22.07;-4.96
30949;HTU21D;17637;51.984;21.208;2022-08-14T21:17:07;22.12;-4.96
30949;HTU21D;17637;51.984;21.208;2022-08-14T21:22:11;22.11;-4.99
30949;HTU21D;17637;51.984;21.208;2022-08-14T21:27:14;22.14;-5.14
30949;HTU21D;17637;51.984;21.208;2022-08-14T21:32:26;21.95;-4.83
30949;HTU21D;17637;51.984;21.208;2022-08-14T21:37:52;21.94;-4.87
30949;HTU21D;17637;51.984;21.208;2022-08-14T21:42:57;21.99;-4.38
30949;HTU21D;17637;51.984;21.208;2022-08-14T21:48:02;21.95;-4.57
30949;HTU21D;17637;51.984;21.208;2022-08-14T21:53:13;21.77;-4.13
30949;HTU21D;17637;51.984;21.208;2022-08-14T21:58:17;21.64;-3.74
30949;HTU21D;17637;51.984;21.208;2022-08-14T22:03:41;21.63;-3.92
30949;HTU21D;17637;51.984;21.208;2022-08-14T22:08:48;21.73;-4.11
30949;HTU21D;17637;51.984;21.208;2022-08-14T22:13:54;21.77;-4.12
30949;HTU21D;17637;51.984;21.208;2022-08-14T22:19:09;21.69;-3.99
30949;HTU21D;17637;51.984;21.208;2022-08-14T22:24:16;21.44;-2.96
30949;HTU21D;17637;51.984;21.208;2022-08-14T22:29:40;21.30;-2.99
30949;HTU21D;17637;51.984;21.208;2022-08-14T22:34:46;21.14;-2.37
30949;HTU21D;17637;51.984;21.208;2022-08-14T22:39:50;21.06;-2.39
30949;HTU21D;17637;51.984;21.208;2022-08-14T22:45:13;20.96;-1.87
30949;HTU21D;17637;51.984;21.208;2022-08-14T22:50:18;20.83;-1.97
30949;HTU21D;17637;51.984;21.208;2022-08-14T22:55:34;20.63;-1.61
30949;HTU21D;17637;51.984;21.208;2022-08-14T23:00:38;20.66;-1.60
30949;HTU21D;17637;51.984;21.208;2022-08-14T23:05:43;20.63;-1.32
30949;HTU21D;17637;51.984;21.208;2022-08-14T23:10:54;20.59;-1.19
30949;HTU21D;17637;51.984;21.208;2022-08-14T23:15:57;20.50;-0.88
30949;HTU21D;17637;51.984;21.208;2022-08-14T23:21:02;20.51;-0.87
30949;HTU21D;17637;51.984;21.208;2022-08-14T23:26:05;20.48;-0.86
30949;HTU21D;17637;51.984;21.208;2022-08-14T23:31:30;20.47;-0.71
30949;HTU21D;17637;51.984;21.208;2022-08-14T23:36:40;20.37;-1.00
30949;HTU21D;17637;51.984;21.208;2022-08-14T23:41:57;20.35;-0.64
30949;HTU21D;17637;51.984;21.208;2022-08-14T23:47:07;20.41;-0.65
30949;HTU21D;17637;51.984;21.208;2022-08-14T23:52:34;20.25;-0.64
30949;HTU21D;17637;51.984;21.208;2022-08-14T23:57:57;20.13;-0.28
